createdAt,value
2018-02-24T00:02:10.389Z,14.10
2018-02-24T00:04:37.842Z,14.83
2018-02-24T00:07:06.056Z,13.00
2018-02-24T00:09:33.515Z,15.37
2018-02-24T00:12:00.979Z,16.10
2018-02-24T00:14:28.429Z,13.67
2018-02-24T00:16:55.888Z,14.07
2018-02-24T00:19:23.352Z,15.53
2018-02-24T00:21:50.794Z,14.80
2018-02-24T00:24:18.234Z,11.67
2018-02-24T00:26:45.742Z,14.57
2018-02-24T00:29:13.210Z,13.77
2018-02-24T00:31:40.668Z,14.30
2018-02-24T00:34:08.164Z,14.00
2018-02-24T00:36:35.618Z,13.53
2018-02-24T00:39:03.061Z,14.80
2018-02-24T00:41:31.286Z,13.67
2018-02-24T00:43:58.737Z,12.97
2018-02-24T00:46:26.198Z,15.43
2018-02-24T00:48:53.716Z,14.10
2018-02-24T00:51:21.947Z,13.53
2018-02-24T00:53:49.412Z,14.87
2018-02-24T00:56:16.853Z,13.40
2018-02-24T00:58:44.326Z,11.87
2018-02-24T01:01:11.793Z,13.80
2018-02-24T01:03:39.246Z,13.00
2018-02-24T01:06:06.692Z,12.07
2018-02-24T01:08:35.234Z,13.23
2018-02-24T01:11:02.688Z,15.37
2018-02-24T01:13:30.155Z,10.87
2018-02-24T01:15:57.589Z,11.20
2018-02-24T01:18:25.822Z,13.30
2018-02-24T01:20:53.264Z,10.60
2018-02-24T01:23:20.747Z,12.20
2018-02-24T01:25:48.192Z,12.43
2018-02-24T01:28:15.667Z,13.33
2018-02-24T01:30:43.122Z,12.17
2018-02-24T01:33:10.640Z,11.10
2018-02-24T01:35:38.032Z,14.63
2018-02-24T01:38:06.997Z,10.50
2018-02-24T01:40:34.452Z,11.97
2018-02-24T01:43:01.915Z,11.67
2018-02-24T01:45:29.364Z,12.57
2018-02-24T01:47:56.828Z,9.67
2018-02-24T01:50:24.289Z,12.87
2018-02-24T01:52:51.761Z,11.90
2018-02-24T01:55:19.216Z,11.20
2018-02-24T01:57:46.669Z,12.37
2018-02-24T02:00:14.137Z,11.00
2018-02-24T02:02:41.593Z,11.63
2018-02-24T02:05:09.047Z,7.43
2018-02-24T02:07:36.523Z,13.13
2018-02-24T02:10:03.968Z,12.13
2018-02-24T02:12:31.424Z,8.87
2018-02-24T02:14:58.936Z,12.30
2018-02-24T02:17:26.371Z,13.57
2018-02-24T02:19:54.601Z,13.30
2018-02-24T02:22:22.041Z,12.10
2018-02-24T02:24:49.497Z,12.07
2018-02-24T02:27:16.950Z,12.83
2018-02-24T02:29:44.424Z,10.57
2018-02-24T02:32:11.950Z,11.53
2018-02-24T02:34:39.398Z,10.87
2018-02-24T02:37:07.679Z,12.77
2018-02-24T02:39:35.916Z,13.33
2018-02-24T02:42:03.385Z,10.73
2018-02-24T02:44:30.847Z,5.57
2018-02-24T02:46:58.309Z,11.07
2018-02-24T02:49:26.532Z,10.53
2018-02-24T02:51:54.000Z,11.67
2018-02-24T02:54:21.451Z,13.40
2018-02-24T02:56:48.906Z,8.27
2018-02-24T02:59:16.385Z,12.07
2018-02-24T03:01:43.863Z,12.00
2018-02-24T03:04:11.306Z,12.40
2018-02-24T03:06:38.777Z,12.03
2018-02-24T03:09:06.246Z,12.60
2018-02-24T03:11:34.475Z,13.67
2018-02-24T03:14:01.935Z,13.47
2018-02-24T03:16:29.407Z,11.73
2018-02-24T03:18:56.844Z,10.53
2018-02-24T03:21:25.316Z,12.60
2018-02-24T03:23:52.763Z,12.33
2018-02-24T03:26:20.233Z,12.70
2018-02-24T03:28:47.685Z,12.33
2018-02-24T03:31:15.174Z,12.03
2018-02-24T03:33:42.609Z,12.37
2018-02-24T03:36:10.066Z,12.50
2018-02-24T03:38:37.528Z,11.73
2018-02-24T03:41:04.998Z,12.20
2018-02-24T03:43:33.211Z,12.90
2018-02-24T03:46:09.043Z,11.40
2018-02-24T03:48:36.485Z,14.10
2018-02-24T03:51:03.940Z,11.77
2018-02-24T03:53:31.392Z,12.73
2018-02-24T03:55:58.852Z,11.03
2018-02-24T03:58:26.301Z,12.30
2018-02-24T04:00:53.750Z,14.17
2018-02-24T04:03:21.191Z,12.90
2018-02-24T04:05:48.646Z,12.40
2018-02-24T04:08:16.106Z,13.17
2018-02-24T04:10:43.567Z,8.60
2018-02-24T04:13:11.032Z,12.23
2018-02-24T04:15:38.478Z,12.67
2018-02-24T04:18:05.953Z,10.40
2018-02-24T04:20:33.405Z,12.47
2018-02-24T04:23:00.872Z,14.53
2018-02-24T04:25:28.320Z,11.00
2018-02-24T04:27:55.765Z,11.87
2018-02-24T04:30:23.221Z,13.13
2018-02-24T04:32:50.691Z,13.13
2018-02-24T04:35:18.135Z,11.57
2018-02-24T04:37:45.581Z,14.20
2018-02-24T04:40:13.052Z,10.73
2018-02-24T04:42:40.520Z,12.50
2018-02-24T04:45:07.978Z,11.97
2018-02-24T04:47:35.424Z,11.30
2018-02-24T04:50:02.883Z,12.43
2018-02-24T04:52:30.322Z,12.17
2018-02-24T04:54:58.545Z,12.57
2018-02-24T04:57:25.989Z,11.57
2018-02-24T04:59:53.457Z,14.40
2018-02-24T05:02:20.915Z,11.43
2018-02-24T05:04:48.384Z,14.30
2018-02-24T05:07:15.870Z,11.63
2018-02-24T05:09:43.325Z,10.00
2018-02-24T05:12:10.771Z,12.37
2018-02-24T05:14:38.234Z,12.83
2018-02-24T05:17:05.677Z,13.57
2018-02-24T05:19:33.144Z,12.87
2018-02-24T05:22:00.603Z,12.20
2018-02-24T05:24:28.060Z,11.77
2018-02-24T05:26:55.523Z,12.07
2018-02-24T05:29:22.967Z,12.30
2018-02-24T05:31:50.425Z,13.13
2018-02-24T05:34:17.898Z,14.80
2018-02-24T05:36:45.345Z,12.30
2018-02-24T05:39:16.561Z,12.50
2018-02-24T05:41:44.022Z,12.67
2018-02-24T05:44:11.485Z,14.70
2018-02-24T05:46:38.931Z,12.60
2018-02-24T05:49:06.399Z,14.47
2018-02-24T05:51:33.850Z,12.93
2018-02-24T05:54:01.310Z,13.57
2018-02-24T05:56:28.763Z,12.43
2018-02-24T05:58:56.223Z,11.33
2018-02-24T06:01:23.687Z,12.90
2018-02-24T06:03:51.144Z,10.70
2018-02-24T06:06:18.598Z,11.40
2018-02-24T06:08:46.065Z,13.33
2018-02-24T06:11:13.527Z,12.60
2018-02-24T06:13:40.979Z,11.97
2018-02-24T06:16:08.422Z,13.97
2018-02-24T06:18:35.889Z,12.10
2018-02-24T06:21:03.343Z,12.80
2018-02-24T06:23:30.809Z,12.83
2018-02-24T06:25:58.280Z,11.63
2018-02-24T06:28:25.744Z,15.53
2018-02-24T06:30:53.242Z,12.33
2018-02-24T06:33:20.823Z,12.87
2018-02-24T06:35:48.297Z,10.43
2018-02-24T06:38:15.747Z,14.37
2018-02-24T06:40:43.223Z,14.73
2018-02-24T06:43:10.677Z,13.07
2018-02-24T06:45:38.144Z,16.40
2018-02-24T06:48:05.602Z,14.37
2018-02-24T06:50:33.050Z,12.83
2018-02-24T06:53:00.509Z,14.00
2018-02-24T06:55:27.970Z,14.80
2018-02-24T06:57:55.439Z,12.80
2018-02-24T07:00:22.899Z,13.67
2018-02-24T07:02:50.337Z,13.07
2018-02-24T07:05:17.801Z,11.30
2018-02-24T07:07:45.244Z,14.60
2018-02-24T07:10:12.713Z,16.20
2018-02-24T07:12:40.170Z,11.60
2018-02-24T07:15:07.612Z,12.57
2018-02-24T07:17:35.063Z,12.87
2018-02-24T07:20:02.608Z,12.37
2018-02-24T07:22:30.069Z,12.10
2018-02-24T07:24:57.563Z,13.37
2018-02-24T07:27:25.043Z,13.47
2018-02-24T07:29:52.505Z,14.33
2018-02-24T07:32:20.725Z,12.17
2018-02-24T07:34:48.190Z,15.47
2018-02-24T07:37:15.662Z,13.27
2018-02-24T07:39:43.108Z,14.77
2018-02-24T07:42:10.563Z,14.63
2018-02-24T07:44:38.019Z,14.50
2018-02-24T07:47:05.479Z,13.37
2018-02-24T07:49:32.935Z,14.07
2018-02-24T07:52:00.390Z,16.40
2018-02-24T07:54:27.839Z,14.20
2018-02-24T07:56:55.303Z,13.13
2018-02-24T07:59:22.760Z,13.43
2018-02-24T08:01:50.316Z,14.50
2018-02-24T08:04:17.790Z,11.83
2018-02-24T08:06:45.227Z,13.50
2018-02-24T08:09:12.688Z,11.83
2018-02-24T08:11:40.149Z,14.10
2018-02-24T08:14:07.606Z,13.57
2018-02-24T08:16:35.072Z,12.67
2018-02-24T08:19:02.558Z,11.53
2018-02-24T08:21:30.020Z,12.40
2018-02-24T08:23:57.483Z,12.17
2018-02-24T08:26:24.940Z,12.83
2018-02-24T08:28:53.158Z,8.20
2018-02-24T08:31:20.630Z,12.37
2018-02-24T08:33:48.072Z,12.50
2018-02-24T08:36:15.532Z,10.40
2018-02-24T08:38:42.973Z,10.57
2018-02-24T08:41:10.430Z,11.27
2018-02-24T08:43:37.858Z,12.37
2018-02-24T08:46:06.090Z,13.13
2018-02-24T08:48:33.717Z,14.20
2018-02-24T08:51:01.160Z,11.47
2018-02-24T08:53:30.378Z,12.00
2018-02-24T08:55:57.833Z,11.80
2018-02-24T08:58:25.288Z,12.00
2018-02-24T09:00:53.537Z,10.93
2018-02-24T09:03:21.022Z,13.77
2018-02-24T09:05:48.481Z,12.37
2018-02-24T09:08:15.937Z,10.90
2018-02-24T09:10:43.400Z,11.80
2018-02-24T09:13:10.837Z,9.60
2018-02-24T09:15:39.075Z,10.00
2018-02-24T09:18:06.537Z,11.30
2018-02-24T09:20:34.016Z,11.83
2018-02-24T09:23:02.240Z,10.30
2018-02-24T09:25:29.710Z,8.00
2018-02-24T09:27:57.155Z,10.80
2018-02-24T09:30:24.611Z,9.63
2018-02-24T09:32:52.169Z,10.63
2018-02-24T09:35:19.626Z,9.90
2018-02-24T09:37:47.091Z,11.30
2018-02-24T09:40:14.557Z,10.80
2018-02-24T09:42:42.047Z,10.10
2018-02-24T09:45:09.478Z,10.63
2018-02-24T09:47:36.927Z,10.37
2018-02-24T09:50:04.395Z,10.93
2018-02-24T09:52:31.855Z,10.97
2018-02-24T09:54:59.321Z,9.53
2018-02-24T09:57:26.766Z,9.67
2018-02-24T09:59:54.242Z,9.83
2018-02-24T10:02:21.717Z,10.80
2018-02-24T10:04:49.928Z,10.10
2018-02-24T10:07:17.383Z,10.43
2018-02-24T10:09:44.831Z,10.37
2018-02-24T10:12:12.287Z,9.30
2018-02-24T10:14:39.733Z,8.50
2018-02-24T10:17:07.951Z,8.90
2018-02-24T10:19:35.403Z,8.70
2018-02-24T10:22:02.859Z,8.20
2018-02-24T10:24:30.283Z,8.50
2018-02-24T10:26:57.733Z,7.23
2018-02-24T10:29:25.950Z,7.03
2018-02-24T10:31:53.412Z,6.43
2018-02-24T10:34:20.857Z,6.50
2018-02-24T10:36:48.314Z,7.20
2018-02-24T10:39:15.754Z,6.87
2018-02-24T10:41:43.208Z,5.80
2018-02-24T10:44:10.646Z,5.40
2018-02-24T10:46:38.980Z,7.00
2018-02-24T10:49:14.284Z,6.03
2018-02-24T10:51:41.721Z,5.03
2018-02-24T10:54:09.940Z,4.50
2018-02-24T10:56:37.396Z,4.73
2018-02-24T10:59:04.862Z,5.53
2018-02-24T11:01:32.300Z,5.37
2018-02-24T11:03:59.768Z,5.30
2018-02-24T11:06:27.236Z,4.83
2018-02-24T11:08:54.673Z,4.10
2018-02-24T11:11:22.133Z,4.70
2018-02-24T11:13:49.576Z,3.77
2018-02-24T11:16:17.807Z,3.73
2018-02-24T11:18:45.227Z,3.30
2018-02-24T11:21:12.688Z,3.50
2018-02-24T11:23:40.129Z,3.20
2018-02-24T11:26:07.579Z,4.10
2018-02-24T11:28:35.786Z,3.73
2018-02-24T11:31:03.230Z,3.07
2018-02-24T11:33:30.675Z,4.00
2018-02-24T11:35:58.101Z,4.30
2018-02-24T11:38:26.300Z,3.90
2018-02-24T11:40:53.754Z,3.60
2018-02-24T11:43:21.195Z,3.50
2018-02-24T11:45:49.429Z,3.60
2018-02-24T11:48:16.877Z,4.17
2018-02-24T11:50:44.426Z,3.47
2018-02-24T11:53:11.868Z,4.50
2018-02-24T11:55:39.324Z,4.40
2018-02-24T11:58:07.529Z,3.93
2018-02-24T12:00:35.061Z,3.70
2018-02-24T12:03:02.592Z,5.10
2018-02-24T12:05:30.808Z,5.50
2018-02-24T12:07:58.264Z,4.30
2018-02-24T12:10:25.696Z,4.63
2018-02-24T12:12:53.924Z,4.40
2018-02-24T12:15:22.118Z,4.13
2018-02-24T12:17:49.575Z,4.63
2018-02-24T12:20:17.011Z,4.50
2018-02-24T12:22:44.452Z,3.80
2018-02-24T12:25:11.900Z,4.50
2018-02-24T12:27:39.440Z,4.83
2018-02-24T12:30:07.657Z,3.77
2018-02-24T12:32:35.102Z,4.60
2018-02-24T12:35:02.566Z,5.70
2018-02-24T12:37:30.006Z,4.43
2018-02-24T12:39:57.442Z,5.23
2018-02-24T12:42:24.881Z,4.50
2018-02-24T12:44:53.190Z,4.23
2018-02-24T12:47:20.613Z,4.70
2018-02-24T12:49:48.889Z,5.70
2018-02-24T12:52:16.321Z,4.77
2018-02-24T12:54:43.778Z,4.80
2018-02-24T12:57:11.233Z,5.17
2018-02-24T12:59:38.692Z,5.20
2018-02-24T13:02:06.206Z,4.80
2018-02-24T13:04:33.658Z,6.73
2018-02-24T13:07:01.145Z,5.47
2018-02-24T13:09:28.569Z,6.27
2018-02-24T13:11:56.021Z,5.53
2018-02-24T13:14:24.270Z,5.50
2018-02-24T13:16:51.716Z,5.97
2018-02-24T13:19:19.162Z,5.83
2018-02-24T13:21:46.600Z,5.70
2018-02-24T13:24:14.053Z,7.10
2018-02-24T13:26:41.510Z,6.00
2018-02-24T13:29:08.939Z,5.03
2018-02-24T13:31:37.158Z,5.70
2018-02-24T13:34:04.614Z,5.63
2018-02-24T13:36:32.056Z,6.13
2018-02-24T13:38:59.504Z,5.43
2018-02-24T13:41:27.044Z,5.60
2018-02-24T13:43:54.420Z,5.80
2018-02-24T13:46:21.871Z,5.77
2018-02-24T13:48:49.563Z,5.83
2018-02-24T13:51:17.044Z,5.50
2018-02-24T13:53:44.483Z,5.70
2018-02-24T13:56:11.954Z,6.07
2018-02-24T13:58:39.593Z,4.27
2018-02-24T14:01:07.143Z,5.43
2018-02-24T14:03:34.584Z,5.10
2018-02-24T14:06:02.049Z,4.23
2018-02-24T14:08:29.497Z,5.03
2018-02-24T14:10:56.964Z,4.60
2018-02-24T14:13:24.398Z,5.23
2018-02-24T14:15:51.887Z,6.17
2018-02-24T14:18:19.323Z,4.43
2018-02-24T14:20:46.800Z,4.40
2018-02-24T14:23:14.397Z,4.13
2018-02-24T14:25:41.849Z,5.57
2018-02-24T14:28:09.312Z,4.57
2018-02-24T14:30:36.760Z,4.60
2018-02-24T14:33:04.209Z,4.07
2018-02-24T14:35:31.748Z,4.53
2018-02-24T14:37:59.281Z,5.50
2018-02-24T14:40:26.737Z,5.33
2018-02-24T14:42:54.942Z,5.13
2018-02-24T14:45:22.474Z,4.67
2018-02-24T14:47:49.919Z,5.27
2018-02-24T14:50:18.149Z,4.70
2018-02-24T14:52:46.585Z,4.00
2018-02-24T14:55:14.031Z,4.63
2018-02-24T14:57:42.245Z,4.57
2018-02-24T15:00:09.704Z,5.03
2018-02-24T15:02:37.146Z,4.53
2018-02-24T15:05:04.614Z,4.83
2018-02-24T15:07:32.066Z,3.57
2018-02-24T15:10:00.548Z,3.63
2018-02-24T15:12:27.984Z,4.50
2018-02-24T15:14:55.455Z,3.87
2018-02-24T15:17:22.904Z,4.50
2018-02-24T15:19:50.363Z,3.47
2018-02-24T15:22:17.818Z,5.70
2018-02-24T15:24:46.028Z,5.00
2018-02-24T15:27:14.263Z,3.20
2018-02-24T15:29:42.481Z,5.37
2018-02-24T15:32:09.970Z,5.67
2018-02-24T15:34:37.416Z,4.87
2018-02-24T15:37:04.882Z,4.43
2018-02-24T15:39:32.322Z,4.07
2018-02-24T15:41:59.787Z,3.87
2018-02-24T15:44:27.240Z,6.13
2018-02-24T15:46:54.800Z,5.27
2018-02-24T15:49:22.255Z,4.67
2018-02-24T15:51:49.791Z,5.50
2018-02-24T15:54:18.062Z,4.90
2018-02-24T15:56:45.504Z,6.90
2018-02-24T15:59:12.958Z,5.53
2018-02-24T16:01:40.431Z,5.60
2018-02-24T16:04:08.053Z,7.20
2018-02-24T16:06:36.519Z,6.90
2018-02-24T16:09:03.968Z,8.27
2018-02-24T16:11:31.427Z,8.13
2018-02-24T16:13:58.882Z,6.67
2018-02-24T16:16:26.340Z,7.70
2018-02-24T16:18:53.877Z,5.93
2018-02-24T16:21:21.331Z,6.30
2018-02-24T16:23:48.875Z,5.90
2018-02-24T16:26:16.381Z,7.37
2018-02-24T16:28:43.825Z,7.53
2018-02-24T16:31:11.334Z,7.90
2018-02-24T16:33:38.781Z,7.07
2018-02-24T16:36:06.998Z,6.30
2018-02-24T16:38:34.457Z,6.20
2018-02-24T16:41:01.918Z,7.70
2018-02-24T16:43:29.369Z,6.90
2018-02-24T16:45:56.824Z,6.40
2018-02-24T16:48:24.350Z,6.07
2018-02-24T16:50:51.808Z,7.87
2018-02-24T16:53:20.028Z,7.50
2018-02-24T16:55:47.541Z,6.47
2018-02-24T16:58:15.000Z,6.73
2018-02-24T17:00:42.444Z,7.97
2018-02-24T17:03:10.702Z,6.37
2018-02-24T17:05:38.150Z,6.87
2018-02-24T17:08:05.610Z,6.10
2018-02-24T17:10:33.042Z,6.77
2018-02-24T17:13:00.498Z,5.70
2018-02-24T17:15:27.939Z,8.50
2018-02-24T17:17:55.398Z,6.63
2018-02-24T17:20:22.905Z,7.03
2018-02-24T17:22:50.333Z,5.60
2018-02-24T17:25:17.781Z,6.90
2018-02-24T17:27:45.325Z,7.00
2018-02-24T17:30:12.753Z,7.60
2018-02-24T17:32:41.350Z,5.90
2018-02-24T17:35:08.915Z,7.40
2018-02-24T17:37:36.453Z,7.13
2018-02-24T17:40:04.687Z,6.90
2018-02-24T17:42:32.175Z,6.10
2018-02-24T17:44:59.663Z,5.57
2018-02-24T17:47:27.117Z,7.40
2018-02-24T17:49:54.574Z,6.63
2018-02-24T17:52:22.773Z,6.23
2018-02-24T17:54:50.240Z,6.60
2018-02-24T17:57:17.673Z,6.40
2018-02-24T17:59:45.145Z,5.50
2018-02-24T18:02:12.583Z,5.50
2018-02-24T18:04:40.032Z,6.80
2018-02-24T18:07:08.242Z,6.47
2018-02-24T18:09:35.699Z,5.50
2018-02-24T18:12:03.135Z,4.73
2018-02-24T18:14:30.589Z,5.50
2018-02-24T18:16:58.095Z,4.77
2018-02-24T18:19:25.529Z,5.07
2018-02-24T18:21:52.980Z,4.90
2018-02-24T18:24:20.424Z,5.43
2018-02-24T18:26:47.880Z,4.43
2018-02-24T18:29:15.331Z,4.13
2018-02-24T18:31:42.788Z,4.43
2018-02-24T18:34:10.222Z,3.90
2018-02-24T18:36:38.440Z,4.63
2018-02-24T18:39:05.886Z,3.93
2018-02-24T18:41:33.407Z,4.70
2018-02-24T18:44:00.859Z,4.33
2018-02-24T18:46:28.311Z,4.30
2018-02-24T18:48:55.766Z,4.60
2018-02-24T18:51:23.213Z,4.07
2018-02-24T18:53:50.856Z,3.70
2018-02-24T18:56:18.299Z,3.53
2018-02-24T18:58:45.744Z,2.80
2018-02-24T19:01:13.185Z,4.40
2018-02-24T19:03:41.466Z,3.63
2018-02-24T19:06:09.751Z,4.03
2018-02-24T19:08:37.228Z,2.50
2018-02-24T19:11:04.690Z,3.23
2018-02-24T19:13:32.138Z,3.17
2018-02-24T19:15:59.581Z,3.03
2018-02-24T19:18:27.096Z,3.30
2018-02-24T19:20:54.552Z,2.37
2018-02-24T19:23:22.006Z,2.50
2018-02-24T19:25:49.510Z,2.10
2018-02-24T19:28:16.997Z,2.50
2018-02-24T19:30:44.422Z,2.47
2018-02-24T19:33:12.245Z,2.30
2018-02-24T19:35:39.692Z,2.93
2018-02-24T19:38:07.147Z,2.17
2018-02-24T19:40:34.659Z,2.00
2018-02-24T19:43:02.121Z,2.77
2018-02-24T19:45:31.300Z,2.10
2018-02-24T19:47:59.534Z,3.30
2018-02-24T19:50:26.996Z,1.93
2018-02-24T19:52:54.540Z,1.80
2018-02-24T19:55:21.970Z,1.93
2018-02-24T19:57:49.405Z,2.17
2018-02-24T20:00:17.624Z,4.53
2018-02-24T20:02:45.887Z,2.80
2018-02-24T20:05:13.329Z,2.67
2018-02-24T20:07:40.829Z,3.13
2018-02-24T20:10:08.271Z,2.17
2018-02-24T20:12:35.727Z,2.93
2018-02-24T20:15:03.276Z,13.37
2018-02-24T20:17:30.717Z,3.90
2018-02-24T20:19:58.170Z,5.63
2018-02-24T20:22:26.385Z,3.50
2018-02-24T20:24:53.893Z,3.30
2018-02-24T20:27:22.191Z,2.13
2018-02-24T20:29:49.655Z,2.50
2018-02-24T20:32:17.114Z,2.10
2018-02-24T20:34:44.769Z,2.07
2018-02-24T20:37:12.205Z,1.97
2018-02-24T20:39:40.489Z,1.50
2018-02-24T20:42:08.767Z,2.17
2018-02-24T20:44:37.008Z,1.87
2018-02-24T20:47:04.515Z,2.00
2018-02-24T20:49:32.726Z,2.27
2018-02-24T20:52:00.233Z,2.07
2018-02-24T20:54:28.505Z,1.80
2018-02-24T20:56:56.795Z,2.37
2018-02-24T20:59:24.253Z,2.33
2018-02-24T21:01:51.717Z,2.47
2018-02-24T21:04:19.176Z,1.60
2018-02-24T21:06:46.664Z,2.10
2018-02-24T21:09:14.905Z,2.23
2018-02-24T21:11:42.369Z,1.90
2018-02-24T21:14:09.901Z,1.87
2018-02-24T21:16:37.634Z,1.97
2018-02-24T21:19:05.072Z,1.80
2018-02-24T21:21:32.527Z,1.60
2018-02-24T21:23:59.997Z,2.10
2018-02-24T21:26:27.453Z,1.40
2018-02-24T21:28:54.973Z,1.63
2018-02-24T21:31:22.421Z,1.40
2018-02-24T21:33:49.898Z,1.40
2018-02-24T21:36:17.359Z,2.07
2018-02-24T21:38:44.801Z,1.33
2018-02-24T21:41:12.251Z,1.60
2018-02-24T21:43:39.725Z,1.40
2018-02-24T21:46:07.190Z,2.10
2018-02-24T21:48:34.653Z,1.57
2018-02-24T21:51:02.108Z,1.90
2018-02-24T21:53:29.561Z,1.50
2018-02-24T21:55:57.017Z,1.50
2018-02-24T21:58:24.774Z,1.77
2018-02-24T22:00:53.071Z,1.67
2018-02-24T22:03:20.526Z,1.83
2018-02-24T22:05:47.982Z,2.00
2018-02-24T22:08:15.440Z,2.30
2018-02-24T22:10:42.884Z,1.97
2018-02-24T22:13:10.369Z,1.27
2018-02-24T22:15:37.834Z,2.80
2018-02-24T22:18:05.284Z,2.30
2018-02-24T22:20:32.745Z,2.20
2018-02-24T22:23:00.210Z,1.70
2018-02-24T22:25:27.660Z,1.60
2018-02-24T22:27:55.155Z,2.60
2018-02-24T22:30:23.380Z,1.80
2018-02-24T22:32:50.833Z,1.97
2018-02-24T22:35:18.298Z,2.07
2018-02-24T22:37:45.783Z,2.10
2018-02-24T22:40:13.225Z,2.27
2018-02-24T22:42:40.689Z,1.70
2018-02-24T22:45:08.140Z,2.47
2018-02-24T22:47:41.335Z,2.20
2018-02-24T22:50:08.796Z,2.57
2018-02-24T22:52:36.257Z,2.30
2018-02-24T22:55:03.721Z,2.50
2018-02-24T22:57:31.166Z,2.60
2018-02-24T22:59:58.612Z,2.20
2018-02-24T23:02:26.077Z,2.73
2018-02-24T23:04:53.577Z,2.70
2018-02-24T23:07:21.799Z,3.43
2018-02-24T23:09:49.255Z,2.70
2018-02-24T23:12:16.743Z,2.20
2018-02-24T23:14:44.204Z,1.77
2018-02-24T23:17:11.650Z,2.33
2018-02-24T23:19:39.105Z,2.50
2018-02-24T23:22:06.570Z,2.80
2018-02-24T23:24:34.039Z,2.40
2018-02-24T23:27:01.480Z,2.90
2018-02-24T23:29:28.932Z,2.00
2018-02-24T23:31:56.388Z,3.57
2018-02-24T23:34:23.851Z,2.10
2018-02-24T23:36:51.528Z,2.77
2018-02-24T23:39:19.002Z,3.23
2018-02-24T23:41:47.221Z,2.40
2018-02-24T23:44:14.688Z,2.47
2018-02-24T23:46:42.133Z,2.80
2018-02-24T23:49:09.589Z,2.63
2018-02-24T23:51:37.051Z,3.50
2018-02-24T23:54:04.508Z,2.77
2018-02-24T23:56:32.024Z,2.80
2018-02-24T23:58:59.433Z,2.67
